Terminal Aerodrome Forecast
Issued by NWS

Home | Current Version | Previous Version | Text Only | Print | Product List | Glossary On
Versions: 1 2 3 4 5 6 7 8 9 10 11 12 13 14
000
FTUS46 KPDT 021700
TAFYKM
TAF
KYKM 021725Z 0218/0318 VRB06KT P6SM SKC
     FM022200 29014G23KT P6SM FEW080
     FM030600 30011KT P6SM SKC
     FM030900 28006KT P6SM SKC=

USA.gov is the U.S. government's official web portal to all federal, state and local government web resources and services.